sensor_id;sensor_type;location;lat;lon;timestamp;P1;durP1;ratioP1;P2;durP2;ratioP2
69047;SDS011;56119;50.118;8.642;2023-07-09T00:00:49;9.70;;;6.25;;
69047;SDS011;56119;50.118;8.642;2023-07-09T00:03:16;9.98;;;6.45;;
69047;SDS011;56119;50.118;8.642;2023-07-09T00:05:42;9.27;;;5.60;;
69047;SDS011;56119;50.118;8.642;2023-07-09T00:08:31;12.73;;;7.55;;
69047;SDS011;56119;50.118;8.642;2023-07-09T00:10:58;9.38;;;5.38;;
69047;SDS011;56119;50.118;8.642;2023-07-09T00:13:25;9.95;;;6.75;;
69047;SDS011;56119;50.118;8.642;2023-07-09T00:16:00;8.75;;;5.63;;
69047;SDS011;56119;50.118;8.642;2023-07-09T00:18:27;9.13;;;6.35;;
69047;SDS011;56119;50.118;8.642;2023-07-09T00:20:53;9.25;;;6.07;;
69047;SDS011;56119;50.118;8.642;2023-07-09T00:23:19;9.32;;;5.35;;
69047;SDS011;56119;50.118;8.642;2023-07-09T00:25:45;9.77;;;5.38;;
69047;SDS011;56119;50.118;8.642;2023-07-09T00:28:17;9.57;;;5.63;;
69047;SDS011;56119;50.118;8.642;2023-07-09T00:30:44;8.25;;;5.38;;
69047;SDS011;56119;50.118;8.642;2023-07-09T00:33:11;7.40;;;4.55;;
69047;SDS011;56119;50.118;8.642;2023-07-09T00:35:40;9.13;;;4.97;;
69047;SDS011;56119;50.118;8.642;2023-07-09T00:38:27;8.95;;;5.47;;
69047;SDS011;56119;50.118;8.642;2023-07-09T00:43:24;7.07;;;4.97;;
69047;SDS011;56119;50.118;8.642;2023-07-09T00:46:13;9.45;;;5.63;;
69047;SDS011;56119;50.118;8.642;2023-07-09T00:48:40;7.30;;;4.40;;
69047;SDS011;56119;50.118;8.642;2023-07-09T00:51:10;9.68;;;5.15;;
69047;SDS011;56119;50.118;8.642;2023-07-09T00:53:37;8.60;;;5.00;;
69047;SDS011;56119;50.118;8.642;2023-07-09T00:56:11;8.52;;;4.65;;
69047;SDS011;56119;50.118;8.642;2023-07-09T00:58:39;7.63;;;5.22;;
69047;SDS011;56119;50.118;8.642;2023-07-09T01:01:06;7.90;;;4.40;;
69047;SDS011;56119;50.118;8.642;2023-07-09T01:03:37;9.07;;;5.65;;
69047;SDS011;56119;50.118;8.642;2023-07-09T01:06:07;7.53;;;4.78;;
69047;SDS011;56119;50.118;8.642;2023-07-09T01:08:34;7.82;;;4.75;;
69047;SDS011;56119;50.118;8.642;2023-07-09T01:11:00;9.70;;;6.05;;
69047;SDS011;56119;50.118;8.642;2023-07-09T01:13:26;8.07;;;5.40;;
69047;SDS011;56119;50.118;8.642;2023-07-09T01:15:53;13.23;;;5.18;;
69047;SDS011;56119;50.118;8.642;2023-07-09T01:18:19;8.60;;;5.68;;
69047;SDS011;56119;50.118;8.642;2023-07-09T01:20:46;8.13;;;5.35;;
69047;SDS011;56119;50.118;8.642;2023-07-09T01:23:12;9.43;;;4.65;;
69047;SDS011;56119;50.118;8.642;2023-07-09T01:25:42;7.35;;;4.80;;
69047;SDS011;56119;50.118;8.642;2023-07-09T01:28:08;10.63;;;4.97;;
69047;SDS011;56119;50.118;8.642;2023-07-09T01:30:36;8.75;;;5.22;;
69047;SDS011;56119;50.118;8.642;2023-07-09T01:33:02;7.28;;;4.60;;
69047;SDS011;56119;50.118;8.642;2023-07-09T01:35:31;10.38;;;5.65;;
69047;SDS011;56119;50.118;8.642;2023-07-09T01:37:58;6.88;;;5.10;;
69047;SDS011;56119;50.118;8.642;2023-07-09T01:40:24;7.88;;;5.65;;
69047;SDS011;56119;50.118;8.642;2023-07-09T01:42:52;8.18;;;5.00;;
69047;SDS011;56119;50.118;8.642;2023-07-09T01:45:20;9.15;;;5.25;;
69047;SDS011;56119;50.118;8.642;2023-07-09T01:47:47;8.55;;;4.57;;
69047;SDS011;56119;50.118;8.642;2023-07-09T01:50:13;8.65;;;5.45;;
69047;SDS011;56119;50.118;8.642;2023-07-09T01:52:41;10.55;;;5.82;;
69047;SDS011;56119;50.118;8.642;2023-07-09T01:55:09;8.65;;;5.30;;
69047;SDS011;56119;50.118;8.642;2023-07-09T01:57:35;7.35;;;4.85;;
69047;SDS011;56119;50.118;8.642;2023-07-09T02:00:03;9.13;;;5.68;;
69047;SDS011;56119;50.118;8.642;2023-07-09T02:02:30;8.48;;;5.15;;
69047;SDS011;56119;50.118;8.642;2023-07-09T02:04:57;9.57;;;5.40;;
69047;SDS011;56119;50.118;8.642;2023-07-09T02:07:24;10.55;;;6.18;;
69047;SDS011;56119;50.118;8.642;2023-07-09T02:09:50;8.40;;;5.35;;
69047;SDS011;56119;50.118;8.642;2023-07-09T02:12:17;8.82;;;4.95;;
69047;SDS011;56119;50.118;8.642;2023-07-09T02:14:43;7.88;;;5.63;;
69047;SDS011;56119;50.118;8.642;2023-07-09T02:17:10;9.60;;;5.40;;
69047;SDS011;56119;50.118;8.642;2023-07-09T02:19:36;10.10;;;5.43;;
69047;SDS011;56119;50.118;8.642;2023-07-09T02:22:03;8.48;;;5.05;;
69047;SDS011;56119;50.118;8.642;2023-07-09T02:24:29;8.90;;;5.10;;
69047;SDS011;56119;50.118;8.642;2023-07-09T02:26:55;9.65;;;4.75;;
69047;SDS011;56119;50.118;8.642;2023-07-09T02:29:22;7.97;;;5.15;;
69047;SDS011;56119;50.118;8.642;2023-07-09T02:31:49;9.10;;;5.38;;
69047;SDS011;56119;50.118;8.642;2023-07-09T02:34:15;6.47;;;4.75;;
69047;SDS011;56119;50.118;8.642;2023-07-09T02:36:41;6.90;;;5.03;;
69047;SDS011;56119;50.118;8.642;2023-07-09T02:39:11;10.00;;;5.55;;
69047;SDS011;56119;50.118;8.642;2023-07-09T02:41:38;9.38;;;5.57;;
69047;SDS011;56119;50.118;8.642;2023-07-09T02:44:04;9.45;;;5.38;;
69047;SDS011;56119;50.118;8.642;2023-07-09T02:46:30;7.25;;;4.95;;
69047;SDS011;56119;50.118;8.642;2023-07-09T02:48:56;8.70;;;5.28;;
69047;SDS011;56119;50.118;8.642;2023-07-09T02:51:22;10.25;;;5.47;;
69047;SDS011;56119;50.118;8.642;2023-07-09T02:53:49;7.93;;;5.03;;
69047;SDS011;56119;50.118;8.642;2023-07-09T02:56:15;11.93;;;5.63;;
69047;SDS011;56119;50.118;8.642;2023-07-09T02:58:41;8.50;;;5.38;;
69047;SDS011;56119;50.118;8.642;2023-07-09T03:01:07;8.07;;;5.03;;
69047;SDS011;56119;50.118;8.642;2023-07-09T03:03:33;8.98;;;5.10;;
69047;SDS011;56119;50.118;8.642;2023-07-09T03:05:59;8.13;;;5.43;;
69047;SDS011;56119;50.118;8.642;2023-07-09T03:08:25;7.32;;;5.25;;
69047;SDS011;56119;50.118;8.642;2023-07-09T03:10:51;7.07;;;4.80;;
69047;SDS011;56119;50.118;8.642;2023-07-09T03:13:17;7.53;;;4.85;;
69047;SDS011;56119;50.118;8.642;2023-07-09T03:15:43;8.27;;;5.65;;
69047;SDS011;56119;50.118;8.642;2023-07-09T03:18:09;10.65;;;5.63;;
69047;SDS011;56119;50.118;8.642;2023-07-09T03:20:35;8.80;;;5.18;;
69047;SDS011;56119;50.118;8.642;2023-07-09T03:23:00;10.90;;;5.50;;
69047;SDS011;56119;50.118;8.642;2023-07-09T03:25:26;6.53;;;4.57;;
69047;SDS011;56119;50.118;8.642;2023-07-09T03:27:52;10.43;;;5.82;;
69047;SDS011;56119;50.118;8.642;2023-07-09T03:30:18;8.15;;;4.68;;
69047;SDS011;56119;50.118;8.642;2023-07-09T03:32:45;8.25;;;5.03;;
69047;SDS011;56119;50.118;8.642;2023-07-09T03:35:11;10.20;;;5.43;;
69047;SDS011;56119;50.118;8.642;2023-07-09T03:37:37;9.00;;;5.45;;
69047;SDS011;56119;50.118;8.642;2023-07-09T03:40:03;8.85;;;5.32;;
69047;SDS011;56119;50.118;8.642;2023-07-09T03:42:29;8.18;;;5.32;;
69047;SDS011;56119;50.118;8.642;2023-07-09T03:44:55;10.20;;;5.90;;
69047;SDS011;56119;50.118;8.642;2023-07-09T03:47:21;6.75;;;4.68;;
69047;SDS011;56119;50.118;8.642;2023-07-09T03:49:47;7.53;;;5.32;;
69047;SDS011;56119;50.118;8.642;2023-07-09T03:52:13;9.48;;;5.20;;
69047;SDS011;56119;50.118;8.642;2023-07-09T03:54:39;7.40;;;4.55;;
69047;SDS011;56119;50.118;8.642;2023-07-09T03:57:05;7.68;;;5.70;;
69047;SDS011;56119;50.118;8.642;2023-07-09T03:59:33;7.07;;;5.25;;
69047;SDS011;56119;50.118;8.642;2023-07-09T04:01:58;7.70;;;5.00;;
69047;SDS011;56119;50.118;8.642;2023-07-09T04:04:26;7.22;;;4.85;;
69047;SDS011;56119;50.118;8.642;2023-07-09T04:06:52;9.63;;;4.68;;
69047;SDS011;56119;50.118;8.642;2023-07-09T04:09:18;7.95;;;4.95;;
69047;SDS011;56119;50.118;8.642;2023-07-09T04:11:44;8.57;;;5.05;;
69047;SDS011;56119;50.118;8.642;2023-07-09T04:14:10;8.90;;;5.78;;
69047;SDS011;56119;50.118;8.642;2023-07-09T04:16:36;8.65;;;5.13;;
69047;SDS011;56119;50.118;8.642;2023-07-09T04:19:02;7.30;;;5.35;;
69047;SDS011;56119;50.118;8.642;2023-07-09T04:21:28;7.88;;;4.75;;
69047;SDS011;56119;50.118;8.642;2023-07-09T04:23:54;8.90;;;5.07;;
69047;SDS011;56119;50.118;8.642;2023-07-09T04:26:20;6.82;;;4.18;;
69047;SDS011;56119;50.118;8.642;2023-07-09T04:28:48;8.43;;;4.70;;
69047;SDS011;56119;50.118;8.642;2023-07-09T04:31:14;7.32;;;5.15;;
69047;SDS011;56119;50.118;8.642;2023-07-09T04:33:40;7.82;;;4.63;;
69047;SDS011;56119;50.118;8.642;2023-07-09T04:36:08;6.78;;;4.38;;
69047;SDS011;56119;50.118;8.642;2023-07-09T04:38:34;6.93;;;4.40;;
69047;SDS011;56119;50.118;8.642;2023-07-09T04:41:00;7.95;;;4.88;;
69047;SDS011;56119;50.118;8.642;2023-07-09T04:43:26;8.48;;;4.40;;
69047;SDS011;56119;50.118;8.642;2023-07-09T04:45:52;6.78;;;4.35;;
69047;SDS011;56119;50.118;8.642;2023-07-09T04:48:17;9.00;;;5.25;;
69047;SDS011;56119;50.118;8.642;2023-07-09T04:50:43;8.65;;;4.95;;
69047;SDS011;56119;50.118;8.642;2023-07-09T04:53:09;8.18;;;5.32;;
69047;SDS011;56119;50.118;8.642;2023-07-09T04:55:36;7.63;;;4.82;;
69047;SDS011;56119;50.118;8.642;2023-07-09T04:58:04;5.82;;;4.30;;
69047;SDS011;56119;50.118;8.642;2023-07-09T05:00:30;8.52;;;5.60;;
69047;SDS011;56119;50.118;8.642;2023-07-09T05:02:56;14.55;;;4.63;;
69047;SDS011;56119;50.118;8.642;2023-07-09T05:05:22;8.57;;;5.18;;
69047;SDS011;56119;50.118;8.642;2023-07-09T05:07:48;7.97;;;5.13;;
69047;SDS011;56119;50.118;8.642;2023-07-09T05:10:15;10.13;;;5.28;;
69047;SDS011;56119;50.118;8.642;2023-07-09T05:12:51;7.70;;;5.80;;
69047;SDS011;56119;50.118;8.642;2023-07-09T05:15:18;7.97;;;6.07;;
69047;SDS011;56119;50.118;8.642;2023-07-09T05:17:44;7.10;;;5.53;;
69047;SDS011;56119;50.118;8.642;2023-07-09T05:20:11;8.38;;;5.57;;
69047;SDS011;56119;50.118;8.642;2023-07-09T05:22:37;10.38;;;7.03;;
69047;SDS011;56119;50.118;8.642;2023-07-09T05:25:03;9.32;;;6.57;;
69047;SDS011;56119;50.118;8.642;2023-07-09T05:27:29;10.88;;;6.40;;
69047;SDS011;56119;50.118;8.642;2023-07-09T05:29:55;8.70;;;5.85;;
69047;SDS011;56119;50.118;8.642;2023-07-09T05:32:21;8.40;;;5.25;;
69047;SDS011;56119;50.118;8.642;2023-07-09T05:34:47;8.45;;;5.45;;
69047;SDS011;56119;50.118;8.642;2023-07-09T05:37:13;9.85;;;6.50;;
69047;SDS011;56119;50.118;8.642;2023-07-09T05:39:39;10.02;;;6.43;;
69047;SDS011;56119;50.118;8.642;2023-07-09T05:42:05;9.07;;;6.15;;
69047;SDS011;56119;50.118;8.642;2023-07-09T05:44:31;8.27;;;6.28;;
69047;SDS011;56119;50.118;8.642;2023-07-09T05:46:57;7.65;;;5.43;;
69047;SDS011;56119;50.118;8.642;2023-07-09T05:49:23;7.15;;;5.18;;
69047;SDS011;56119;50.118;8.642;2023-07-09T05:51:49;8.73;;;5.50;;
69047;SDS011;56119;50.118;8.642;2023-07-09T05:54:15;8.70;;;6.07;;
69047;SDS011;56119;50.118;8.642;2023-07-09T05:56:41;13.50;;;6.03;;
69047;SDS011;56119;50.118;8.642;2023-07-09T05:59:07;8.23;;;5.90;;
69047;SDS011;56119;50.118;8.642;2023-07-09T06:01:33;12.63;;;8.45;;
69047;SDS011;56119;50.118;8.642;2023-07-09T06:03:59;11.88;;;8.25;;
69047;SDS011;56119;50.118;8.642;2023-07-09T06:06:25;11.45;;;7.63;;
69047;SDS011;56119;50.118;8.642;2023-07-09T06:08:52;12.82;;;7.13;;
69047;SDS011;56119;50.118;8.642;2023-07-09T06:11:18;13.15;;;8.20;;
69047;SDS011;56119;50.118;8.642;2023-07-09T06:16:48;9.82;;;6.50;;
69047;SDS011;56119;50.118;8.642;2023-07-09T06:19:14;11.52;;;6.68;;
69047;SDS011;56119;50.118;8.642;2023-07-09T06:21:40;9.85;;;6.57;;
69047;SDS011;56119;50.118;8.642;2023-07-09T06:24:06;10.10;;;5.78;;
69047;SDS011;56119;50.118;8.642;2023-07-09T06:26:33;11.65;;;7.80;;
69047;SDS011;56119;50.118;8.642;2023-07-09T06:28:59;8.65;;;6.20;;
69047;SDS011;56119;50.118;8.642;2023-07-09T06:31:25;8.90;;;6.00;;
69047;SDS011;56119;50.118;8.642;2023-07-09T06:33:51;10.02;;;6.75;;
69047;SDS011;56119;50.118;8.642;2023-07-09T06:36:17;10.48;;;6.45;;
69047;SDS011;56119;50.118;8.642;2023-07-09T06:38:44;10.60;;;6.72;;
69047;SDS011;56119;50.118;8.642;2023-07-09T06:41:10;10.32;;;6.47;;
69047;SDS011;56119;50.118;8.642;2023-07-09T06:43:36;8.82;;;5.50;;
69047;SDS011;56119;50.118;8.642;2023-07-09T06:46:06;10.60;;;6.30;;
69047;SDS011;56119;50.118;8.642;2023-07-09T06:51:35;13.68;;;6.30;;
69047;SDS011;56119;50.118;8.642;2023-07-09T06:54:01;10.98;;;6.05;;
69047;SDS011;56119;50.118;8.642;2023-07-09T06:56:27;12.25;;;6.30;;
69047;SDS011;56119;50.118;8.642;2023-07-09T06:58:53;8.25;;;5.70;;
69047;SDS011;56119;50.118;8.642;2023-07-09T07:01:19;10.90;;;5.93;;
69047;SDS011;56119;50.118;8.642;2023-07-09T07:03:45;8.57;;;6.28;;
69047;SDS011;56119;50.118;8.642;2023-07-09T07:06:11;8.60;;;5.95;;
69047;SDS011;56119;50.118;8.642;2023-07-09T07:08:37;7.97;;;5.68;;
69047;SDS011;56119;50.118;8.642;2023-07-09T07:11:03;7.70;;;5.63;;
69047;SDS011;56119;50.118;8.642;2023-07-09T07:22:53;8.55;;;5.90;;
69047;SDS011;56119;50.118;8.642;2023-07-09T07:25:19;9.75;;;7.38;;
69047;SDS011;56119;50.118;8.642;2023-07-09T07:27:45;9.23;;;7.07;;
69047;SDS011;56119;50.118;8.642;2023-07-09T07:30:11;11.50;;;6.03;;
69047;SDS011;56119;50.118;8.642;2023-07-09T07:32:43;11.02;;;6.88;;
69047;SDS011;56119;50.118;8.642;2023-07-09T07:35:10;9.55;;;6.20;;
69047;SDS011;56119;50.118;8.642;2023-07-09T07:37:36;8.07;;;6.20;;
69047;SDS011;56119;50.118;8.642;2023-07-09T07:40:02;11.52;;;6.72;;
69047;SDS011;56119;50.118;8.642;2023-07-09T07:42:29;11.85;;;6.10;;
69047;SDS011;56119;50.118;8.642;2023-07-09T07:44:55;9.05;;;5.50;;
69047;SDS011;56119;50.118;8.642;2023-07-09T07:47:21;8.52;;;5.70;;
69047;SDS011;56119;50.118;8.642;2023-07-09T07:49:47;8.95;;;6.07;;
69047;SDS011;56119;50.118;8.642;2023-07-09T07:52:13;10.23;;;6.32;;
69047;SDS011;56119;50.118;8.642;2023-07-09T07:54:39;10.43;;;6.35;;
69047;SDS011;56119;50.118;8.642;2023-07-09T07:57:05;7.47;;;5.00;;
69047;SDS011;56119;50.118;8.642;2023-07-09T07:59:34;10.23;;;5.03;;
69047;SDS011;56119;50.118;8.642;2023-07-09T08:02:00;9.50;;;5.68;;
69047;SDS011;56119;50.118;8.642;2023-07-09T08:04:26;9.93;;;6.15;;
69047;SDS011;56119;50.118;8.642;2023-07-09T08:06:52;10.50;;;5.70;;
69047;SDS011;56119;50.118;8.642;2023-07-09T08:09:18;8.82;;;5.05;;
69047;SDS011;56119;50.118;8.642;2023-07-09T08:11:44;11.48;;;6.25;;
69047;SDS011;56119;50.118;8.642;2023-07-09T08:14:10;12.02;;;7.43;;
69047;SDS011;56119;50.118;8.642;2023-07-09T08:16:37;8.90;;;5.93;;
69047;SDS011;56119;50.118;8.642;2023-07-09T08:19:03;8.25;;;5.90;;
69047;SDS011;56119;50.118;8.642;2023-07-09T08:21:30;8.02;;;5.07;;
69047;SDS011;56119;50.118;8.642;2023-07-09T08:23:56;8.80;;;5.95;;
69047;SDS011;56119;50.118;8.642;2023-07-09T08:26:22;9.13;;;5.47;;
69047;SDS011;56119;50.118;8.642;2023-07-09T08:28:49;7.30;;;5.50;;
69047;SDS011;56119;50.118;8.642;2023-07-09T08:31:15;6.85;;;5.38;;
69047;SDS011;56119;50.118;8.642;2023-07-09T08:33:41;8.98;;;6.20;;
69047;SDS011;56119;50.118;8.642;2023-07-09T08:36:07;7.70;;;6.10;;
69047;SDS011;56119;50.118;8.642;2023-07-09T08:38:33;9.60;;;5.10;;
69047;SDS011;56119;50.118;8.642;2023-07-09T08:43:33;8.43;;;5.97;;
69047;SDS011;56119;50.118;8.642;2023-07-09T08:46:15;7.50;;;4.68;;
69047;SDS011;56119;50.118;8.642;2023-07-09T08:48:44;7.30;;;5.03;;
69047;SDS011;56119;50.118;8.642;2023-07-09T08:56:13;7.53;;;5.00;;
69047;SDS011;56119;50.118;8.642;2023-07-09T08:58:39;8.25;;;5.22;;
69047;SDS011;56119;50.118;8.642;2023-07-09T09:01:11;7.82;;;5.10;;
69047;SDS011;56119;50.118;8.642;2023-07-09T09:03:49;7.93;;;5.72;;
69047;SDS011;56119;50.118;8.642;2023-07-09T09:06:17;6.28;;;4.82;;
69047;SDS011;56119;50.118;8.642;2023-07-09T09:11:12;10.82;;;5.85;;
69047;SDS011;56119;50.118;8.642;2023-07-09T09:13:39;9.60;;;5.65;;
69047;SDS011;56119;50.118;8.642;2023-07-09T09:16:11;7.57;;;5.10;;
69047;SDS011;56119;50.118;8.642;2023-07-09T09:18:43;7.32;;;5.35;;
69047;SDS011;56119;50.118;8.642;2023-07-09T09:21:20;6.93;;;5.18;;
69047;SDS011;56119;50.118;8.642;2023-07-09T09:23:49;7.10;;;4.32;;
69047;SDS011;56119;50.118;8.642;2023-07-09T09:26:18;7.32;;;4.65;;
69047;SDS011;56119;50.118;8.642;2023-07-09T09:28:44;6.70;;;4.90;;
69047;SDS011;56119;50.118;8.642;2023-07-09T09:31:11;6.75;;;4.65;;
69047;SDS011;56119;50.118;8.642;2023-07-09T09:33:41;9.15;;;4.65;;
69047;SDS011;56119;50.118;8.642;2023-07-09T09:36:15;7.88;;;4.90;;
69047;SDS011;56119;50.118;8.642;2023-07-09T09:38:41;8.82;;;5.05;;
69047;SDS011;56119;50.118;8.642;2023-07-09T09:41:12;6.78;;;4.03;;
69047;SDS011;56119;50.118;8.642;2023-07-09T09:43:38;5.32;;;3.78;;
69047;SDS011;56119;50.118;8.642;2023-07-09T09:46:07;6.38;;;4.43;;
69047;SDS011;56119;50.118;8.642;2023-07-09T09:48:33;7.28;;;4.13;;
69047;SDS011;56119;50.118;8.642;2023-07-09T09:51:03;8.15;;;4.25;;
69047;SDS011;56119;50.118;8.642;2023-07-09T09:53:30;7.03;;;4.60;;
69047;SDS011;56119;50.118;8.642;2023-07-09T09:56:03;10.73;;;5.55;;
69047;SDS011;56119;50.118;8.642;2023-07-09T09:58:29;7.55;;;5.10;;
69047;SDS011;56119;50.118;8.642;2023-07-09T10:00:57;7.50;;;4.70;;
69047;SDS011;56119;50.118;8.642;2023-07-09T10:03:35;6.93;;;5.03;;
69047;SDS011;56119;50.118;8.642;2023-07-09T10:06:21;7.47;;;5.25;;
69047;SDS011;56119;50.118;8.642;2023-07-09T10:13:44;9.63;;;5.93;;
69047;SDS011;56119;50.118;8.642;2023-07-09T10:16:19;6.68;;;4.90;;
69047;SDS011;56119;50.118;8.642;2023-07-09T10:18:50;6.65;;;4.40;;
69047;SDS011;56119;50.118;8.642;2023-07-09T10:21:24;6.80;;;4.50;;
69047;SDS011;56119;50.118;8.642;2023-07-09T10:23:54;7.75;;;4.53;;
69047;SDS011;56119;50.118;8.642;2023-07-09T10:34:07;8.45;;;4.90;;
69047;SDS011;56119;50.118;8.642;2023-07-09T10:36:42;8.82;;;6.00;;
69047;SDS011;56119;50.118;8.642;2023-07-09T10:39:16;5.75;;;4.43;;
69047;SDS011;56119;50.118;8.642;2023-07-09T10:41:44;9.18;;;5.10;;
69047;SDS011;56119;50.118;8.642;2023-07-09T10:46:38;7.97;;;4.75;;
69047;SDS011;56119;50.118;8.642;2023-07-09T10:49:05;8.98;;;5.22;;
69047;SDS011;56119;50.118;8.642;2023-07-09T10:51:38;8.73;;;4.82;;
69047;SDS011;56119;50.118;8.642;2023-07-09T10:56:51;6.22;;;4.93;;
69047;SDS011;56119;50.118;8.642;2023-07-09T10:59:24;7.80;;;4.88;;
69047;SDS011;56119;50.118;8.642;2023-07-09T11:01:54;7.15;;;4.60;;
69047;SDS011;56119;50.118;8.642;2023-07-09T11:06:50;7.90;;;4.45;;
69047;SDS011;56119;50.118;8.642;2023-07-09T11:09:23;9.88;;;4.85;;
69047;SDS011;56119;50.118;8.642;2023-07-09T11:11:50;7.00;;;3.80;;
69047;SDS011;56119;50.118;8.642;2023-07-09T11:14:23;5.75;;;3.97;;
69047;SDS011;56119;50.118;8.642;2023-07-09T11:16:51;6.30;;;3.60;;
69047;SDS011;56119;50.118;8.642;2023-07-09T11:19:19;8.00;;;4.47;;
69047;SDS011;56119;50.118;8.642;2023-07-09T11:22:05;6.82;;;4.32;;
69047;SDS011;56119;50.118;8.642;2023-07-09T11:24:46;7.30;;;4.43;;
69047;SDS011;56119;50.118;8.642;2023-07-09T11:27:30;5.10;;;3.88;;
69047;SDS011;56119;50.118;8.642;2023-07-09T11:30:00;5.72;;;3.90;;
69047;SDS011;56119;50.118;8.642;2023-07-09T11:32:27;7.05;;;4.82;;
69047;SDS011;56119;50.118;8.642;2023-07-09T11:34:54;9.10;;;4.53;;
69047;SDS011;56119;50.118;8.642;2023-07-09T11:37:23;6.22;;;4.10;;
69047;SDS011;56119;50.118;8.642;2023-07-09T11:39:50;5.20;;;4.32;;
69047;SDS011;56119;50.118;8.642;2023-07-09T11:44:53;5.78;;;3.97;;
69047;SDS011;56119;50.118;8.642;2023-07-09T11:50:24;6.60;;;4.13;;
69047;SDS011;56119;50.118;8.642;2023-07-09T11:52:55;5.65;;;4.20;;
69047;SDS011;56119;50.118;8.642;2023-07-09T11:58:25;7.05;;;4.63;;
69047;SDS011;56119;50.118;8.642;2023-07-09T12:00:53;6.53;;;4.05;;
69047;SDS011;56119;50.118;8.642;2023-07-09T12:03:27;7.03;;;3.83;;
69047;SDS011;56119;50.118;8.642;2023-07-09T12:06:01;4.55;;;3.60;;
69047;SDS011;56119;50.118;8.642;2023-07-09T12:08:38;6.57;;;4.10;;
69047;SDS011;56119;50.118;8.642;2023-07-09T12:11:05;5.65;;;4.35;;
69047;SDS011;56119;50.118;8.642;2023-07-09T12:13:40;5.10;;;4.00;;
69047;SDS011;56119;50.118;8.642;2023-07-09T12:22:15;6.75;;;4.65;;
69047;SDS011;56119;50.118;8.642;2023-07-09T12:24:42;5.82;;;3.20;;
69047;SDS011;56119;50.118;8.642;2023-07-09T12:27:42;12.48;;;4.78;;
69047;SDS011;56119;50.118;8.642;2023-07-09T12:30:02;7.05;;;3.90;;
69047;SDS011;56119;50.118;8.642;2023-07-09T12:32:28;7.43;;;4.45;;
69047;SDS011;56119;50.118;8.642;2023-07-09T12:34:55;5.47;;;3.47;;
69047;SDS011;56119;50.118;8.642;2023-07-09T12:37:21;5.70;;;4.20;;
69047;SDS011;56119;50.118;8.642;2023-07-09T12:39:49;9.57;;;5.55;;
69047;SDS011;56119;50.118;8.642;2023-07-09T12:42:17;11.70;;;5.85;;
69047;SDS011;56119;50.118;8.642;2023-07-09T12:44:44;5.53;;;4.03;;
69047;SDS011;56119;50.118;8.642;2023-07-09T12:47:13;6.03;;;3.92;;
69047;SDS011;56119;50.118;8.642;2023-07-09T12:49:40;7.15;;;4.82;;
69047;SDS011;56119;50.118;8.642;2023-07-09T12:52:07;6.82;;;4.20;;
69047;SDS011;56119;50.118;8.642;2023-07-09T12:54:34;8.18;;;4.22;;
69047;SDS011;56119;50.118;8.642;2023-07-09T12:57:00;9.60;;;4.57;;
69047;SDS011;56119;50.118;8.642;2023-07-09T12:59:38;6.28;;;4.55;;
69047;SDS011;56119;50.118;8.642;2023-07-09T13:02:18;10.23;;;4.63;;
69047;SDS011;56119;50.118;8.642;2023-07-09T13:04:45;6.60;;;4.25;;
69047;SDS011;56119;50.118;8.642;2023-07-09T13:07:45;8.68;;;4.90;;
69047;SDS011;56119;50.118;8.642;2023-07-09T13:10:04;6.60;;;4.55;;
69047;SDS011;56119;50.118;8.642;2023-07-09T13:12:31;5.57;;;4.47;;
69047;SDS011;56119;50.118;8.642;2023-07-09T13:14:58;7.18;;;4.63;;
69047;SDS011;56119;50.118;8.642;2023-07-09T13:17:27;6.28;;;4.22;;
69047;SDS011;56119;50.118;8.642;2023-07-09T13:19:53;5.32;;;4.07;;
69047;SDS011;56119;50.118;8.642;2023-07-09T13:22:20;7.63;;;4.28;;
69047;SDS011;56119;50.118;8.642;2023-07-09T13:24:46;6.75;;;3.63;;
69047;SDS011;56119;50.118;8.642;2023-07-09T13:27:13;6.05;;;4.00;;
69047;SDS011;56119;50.118;8.642;2023-07-09T13:29:39;7.13;;;4.05;;
69047;SDS011;56119;50.118;8.642;2023-07-09T13:32:09;6.80;;;4.80;;
69047;SDS011;56119;50.118;8.642;2023-07-09T13:34:35;7.15;;;4.55;;
69047;SDS011;56119;50.118;8.642;2023-07-09T13:37:02;5.97;;;3.88;;
69047;SDS011;56119;50.118;8.642;2023-07-09T13:39:28;7.30;;;3.92;;
69047;SDS011;56119;50.118;8.642;2023-07-09T13:41:53;9.45;;;4.10;;
69047;SDS011;56119;50.118;8.642;2023-07-09T13:44:21;7.82;;;4.22;;
69047;SDS011;56119;50.118;8.642;2023-07-09T13:46:54;8.93;;;4.72;;
69047;SDS011;56119;50.118;8.642;2023-07-09T13:49:21;5.85;;;4.18;;
69047;SDS011;56119;50.118;8.642;2023-07-09T13:51:48;6.57;;;4.45;;
69047;SDS011;56119;50.118;8.642;2023-07-09T13:54:20;5.95;;;4.45;;
69047;SDS011;56119;50.118;8.642;2023-07-09T13:56:46;7.35;;;4.18;;
69047;SDS011;56119;50.118;8.642;2023-07-09T13:59:15;6.25;;;4.28;;
69047;SDS011;56119;50.118;8.642;2023-07-09T14:01:42;6.95;;;4.22;;
69047;SDS011;56119;50.118;8.642;2023-07-09T14:04:09;5.82;;;3.90;;
69047;SDS011;56119;50.118;8.642;2023-07-09T14:06:36;7.30;;;4.65;;
69047;SDS011;56119;50.118;8.642;2023-07-09T14:09:09;7.40;;;4.28;;
69047;SDS011;56119;50.118;8.642;2023-07-09T14:11:49;5.25;;;4.00;;
69047;SDS011;56119;50.118;8.642;2023-07-09T14:14:23;7.70;;;4.63;;
69047;SDS011;56119;50.118;8.642;2023-07-09T14:16:50;9.02;;;4.45;;
69047;SDS011;56119;50.118;8.642;2023-07-09T14:19:17;5.75;;;3.90;;
69047;SDS011;56119;50.118;8.642;2023-07-09T14:21:44;7.88;;;5.53;;
69047;SDS011;56119;50.118;8.642;2023-07-09T14:26:39;6.53;;;4.28;;
69047;SDS011;56119;50.118;8.642;2023-07-09T14:29:05;9.35;;;4.57;;
69047;SDS011;56119;50.118;8.642;2023-07-09T14:31:31;5.80;;;4.60;;
69047;SDS011;56119;50.118;8.642;2023-07-09T14:34:07;6.85;;;4.32;;
69047;SDS011;56119;50.118;8.642;2023-07-09T14:36:38;6.65;;;4.50;;
69047;SDS011;56119;50.118;8.642;2023-07-09T14:39:08;5.07;;;4.28;;
69047;SDS011;56119;50.118;8.642;2023-07-09T14:41:35;5.18;;;3.80;;
69047;SDS011;56119;50.118;8.642;2023-07-09T14:44:01;6.57;;;4.25;;
69047;SDS011;56119;50.118;8.642;2023-07-09T14:46:27;7.15;;;4.25;;
69047;SDS011;56119;50.118;8.642;2023-07-09T14:48:53;9.65;;;4.95;;
69047;SDS011;56119;50.118;8.642;2023-07-09T14:51:19;7.72;;;4.30;;
69047;SDS011;56119;50.118;8.642;2023-07-09T14:53:48;8.07;;;4.80;;
69047;SDS011;56119;50.118;8.642;2023-07-09T14:56:14;6.05;;;4.10;;
69047;SDS011;56119;50.118;8.642;2023-07-09T14:58:40;6.28;;;3.90;;
69047;SDS011;56119;50.118;8.642;2023-07-09T15:01:10;9.63;;;4.60;;
69047;SDS011;56119;50.118;8.642;2023-07-09T15:03:36;6.38;;;4.47;;
69047;SDS011;56119;50.118;8.642;2023-07-09T15:06:02;4.25;;;3.65;;
69047;SDS011;56119;50.118;8.642;2023-07-09T15:08:28;5.05;;;4.57;;
69047;SDS011;56119;50.118;8.642;2023-07-09T15:10:54;5.72;;;4.47;;
69047;SDS011;56119;50.118;8.642;2023-07-09T15:13:29;8.60;;;4.30;;
69047;SDS011;56119;50.118;8.642;2023-07-09T15:15:56;5.63;;;4.28;;
69047;SDS011;56119;50.118;8.642;2023-07-09T15:18:22;6.38;;;3.90;;
69047;SDS011;56119;50.118;8.642;2023-07-09T15:20:53;4.90;;;4.40;;
69047;SDS011;56119;50.118;8.642;2023-07-09T15:23:20;8.50;;;4.82;;
69047;SDS011;56119;50.118;8.642;2023-07-09T15:25:47;11.27;;;4.38;;
69047;SDS011;56119;50.118;8.642;2023-07-09T15:28:13;5.75;;;4.40;;
69047;SDS011;56119;50.118;8.642;2023-07-09T15:30:39;7.57;;;4.40;;
69047;SDS011;56119;50.118;8.642;2023-07-09T15:33:08;7.03;;;4.50;;
69047;SDS011;56119;50.118;8.642;2023-07-09T15:35:35;6.78;;;4.53;;
69047;SDS011;56119;50.118;8.642;2023-07-09T15:38:47;7.15;;;4.47;;
69047;SDS011;56119;50.118;8.642;2023-07-09T15:40:48;11.13;;;4.72;;
69047;SDS011;56119;50.118;8.642;2023-07-09T15:43:15;5.68;;;4.68;;
69047;SDS011;56119;50.118;8.642;2023-07-09T15:45:42;5.63;;;4.57;;
69047;SDS011;56119;50.118;8.642;2023-07-09T15:48:18;9.48;;;4.32;;
69047;SDS011;56119;50.118;8.642;2023-07-09T15:50:46;6.15;;;3.88;;
69047;SDS011;56119;50.118;8.642;2023-07-09T15:53:12;4.93;;;3.53;;
69047;SDS011;56119;50.118;8.642;2023-07-09T15:55:39;10.90;;;4.07;;